Flight Track Log - Related Links

Times and Time Zones

All times are in EDT time to prevent confusion due to time zone crossing. See the DAL5880 flight status page for this flight to view local times or setup timezone preferences in your user account.

Time Position Orientation Groundspeed Altitude Reporting Facility
EDT Latitude Longitude Course Direction KTS MPH feet Rate Location/Type
Sat 12:53:48 PM 40.7333 -73.8167 45° Northeast 192 221 2,900  Level New York TRACON
Sat 12:54:48 PM 40.7833 -73.7833 27° Northeast 230 265 5,300 2,738 Climbing New York TRACON
Sat 12:55:00 PM 40.9399 -73.5907 44° Northeast  Level Estimated
Sat 12:56:00 PM 40.9939 -73.4965 48° Northeast  Level Estimated
Sat 12:56:28 PM 40.8928 -73.6975 31° Northeast 279 321 10,200  Level Boston Center
Sat 12:57:00 PM 41.0479 -73.4021 48° Northeast  Level Estimated
Sat 12:57:29 PM 40.9583 -73.6247 40° Northeast 286 329 12,400  Level Boston Center
Sat 12:58:00 PM 41.1018 -73.3075 45° Northeast  Level Estimated
Sat 12:58:30 PM 41.0217 -73.5514 41° Northeast 310 357 14,200  Level Boston Center
Sat 12:59:30 PM 41.1017 -73.4619 40° Northeast 331 381 17,000 2,182 Climbing Boston Center
Sat 01:00:31 PM 41.1689 -73.3831 41° Northeast 344 396 18,600 1,017 Climbing Boston Center
Sat 01:01:28 PM 41.2408 -73.2683 50° Northeast 350 403 19,000 203 Climbing Boston Center
Sat 01:02:29 PM 41.2728 -73.1333 72° East 357 411 19,000  Level Boston Center
Sat 01:03:30 PM 41.2986 -73.0119 74° East 379 436 19,000  Level Boston Center
Sat 01:04:30 PM 41.3325 -72.8603 73° East 386 444 19,000  Level Boston Center
Sat 01:05:31 PM 41.3600 -72.7361 74° East 381 438 19,000  Level Boston Center
Sat 01:06:28 PM 41.3958 -72.5867 72° East 381 438 19,000  Level Boston Center
Sat 01:07:29 PM 41.4272 -72.4483 73° East 381 438 19,000 -198 Level Boston Center
Sat 01:08:29 PM 41.4561 -72.3128 74° East 376 433 18,600 -545 Descending Boston Center
Sat 01:09:30 PM 41.4894 -72.1906 70° East 376 433 17,900 -655 Descending Boston Center
Sat 01:10:28 PM 41.5350 -72.0658 64° Northeast 367 422 17,300 -756 Descending Boston Center
Sat 01:11:29 PM 41.5617 -71.9794 68° East 329 379 16,400 -1,180 Descending Boston Center
Sat 01:12:30 PM 41.6006 -71.8517 68° East 306 352 14,900 -1,180 Descending Boston Center
Sat 01:13:31 PM 41.6294 -71.7597 67° East 299 344 14,000 -966 Descending Boston Center
Sat 01:14:28 PM 41.6619 -71.6453 69° East 293 337 13,000 -877 Descending Boston Center
Sat 01:15:41 PM 41.6883 -71.5506 70° East 293 337 12,100 -902 Descending Boston Center
Sat 01:16:41 PM 41.7247 -71.4331 67° East 288 331 11,000 -500 Descending Boston Center
Sat 01:17:41 PM 41.7908 -71.3569 41° Northeast 277 319 11,100 -99 Climbing Boston Center
Sat 01:18:42 PM 41.8594 -71.3336 14° North 283 326 10,800 -1,041 Descending Boston Center
Sat 01:19:42 PM 41.9425 -71.3069 13° North 283 326 9,000 -1,831 Descending Boston Center
Sat 01:20:40 PM 42.0089 -71.2889 11° North 272 313 7,200 -1,815 Descending Boston Center
Sat 01:21:41 PM 42.0858 -71.2625 14° North 259 298 5,400 -1,525 Descending Boston Center
Sat 01:22:42 PM 42.1417 -71.2333 21° North 239 275 4,100 -694 Descending Boston Center
Sat 01:23:42 PM 42.2039 -71.1844 30° Northeast 239 275 4,000 -356 Descending Boston Center
Sat 01:24:40 PM 42.2431 -71.1444 37° Northeast 212 244 3,400 -1,169 Descending Boston Center
Sat 01:25:40 PM 42.2797 -71.0931 46° Northeast 184 212 1,700 -1,038 Descending Boston Center
Sat 01:26:53 PM 42.3025 -71.0589 48° Northeast 162 186 1,100 -493 Descending Boston Center

Login

Don't have an account? Register now (free) for customized features, flight alerts, and more!